sensor_id;sensor_type;location;lat;lon;timestamp;noise_LAeq;noise_LA_min;noise_LA_max;noise_LA01;noise_LA95
56099;Laerm;44276;49.534;6.378;2023-04-03T00:01:33;41.50;39.92;42.76;;
56099;Laerm;44276;49.534;6.378;2023-04-03T00:04:01;41.50;40.03;42.71;;
56099;Laerm;44276;49.534;6.378;2023-04-03T00:06:30;41.50;39.92;42.98;;
56099;Laerm;44276;49.534;6.378;2023-04-03T00:08:58;41.51;39.92;42.71;;
56099;Laerm;44276;49.534;6.378;2023-04-03T00:11:26;41.50;40.03;42.82;;
56099;Laerm;44276;49.534;6.378;2023-04-03T00:13:54;41.51;40.03;42.76;;
56099;Laerm;44276;49.534;6.378;2023-04-03T00:16:22;41.51;39.21;43.14;;
56099;Laerm;44276;49.534;6.378;2023-04-03T00:18:52;41.50;40.03;42.93;;
56099;Laerm;44276;49.534;6.378;2023-04-03T00:21:20;41.49;39.81;42.76;;
56099;Laerm;44276;49.534;6.378;2023-04-03T00:23:48;41.50;39.92;42.88;;
56099;Laerm;44276;49.534;6.378;2023-04-03T00:26:17;41.50;39.92;42.71;;
56099;Laerm;44276;49.534;6.378;2023-04-03T00:28:45;41.50;39.92;42.82;;
56099;Laerm;44276;49.534;6.378;2023-04-03T00:31:14;41.47;39.92;42.88;;
56099;Laerm;44276;49.534;6.378;2023-04-03T00:33:43;41.49;40.03;42.82;;
56099;Laerm;44276;49.534;6.378;2023-04-03T00:36:13;41.51;40.03;42.71;;
56099;Laerm;44276;49.534;6.378;2023-04-03T00:38:41;41.50;40.03;42.71;;
56099;Laerm;44276;49.534;6.378;2023-04-03T00:41:09;41.48;40.03;42.71;;
56099;Laerm;44276;49.534;6.378;2023-04-03T00:43:37;41.47;39.92;42.71;;
56099;Laerm;44276;49.534;6.378;2023-04-03T00:46:05;41.45;39.92;42.71;;
56099;Laerm;44276;49.534;6.378;2023-04-03T00:48:39;41.46;39.81;42.79;;
56099;Laerm;44276;49.534;6.378;2023-04-03T00:51:12;41.47;39.70;42.82;;
56099;Laerm;44276;49.534;6.378;2023-04-03T00:53:46;41.49;39.92;42.82;;
56099;Laerm;44276;49.534;6.378;2023-04-03T00:56:18;41.46;40.03;42.76;;
56099;Laerm;44276;49.534;6.378;2023-04-03T00:58:52;41.48;39.81;42.65;;
56099;Laerm;44276;49.534;6.378;2023-04-03T01:01:26;41.48;39.92;42.65;;
56099;Laerm;44276;49.534;6.378;2023-04-03T01:03:55;41.50;40.03;44.47;;
56099;Laerm;44276;49.534;6.378;2023-04-03T01:06:28;41.49;40.03;42.98;;
56099;Laerm;44276;49.534;6.378;2023-04-03T01:08:59;41.49;39.81;42.98;;
56099;Laerm;44276;49.534;6.378;2023-04-03T01:11:27;41.47;39.70;42.93;;
56099;Laerm;44276;49.534;6.378;2023-04-03T01:13:55;41.49;39.92;42.76;;
56099;Laerm;44276;49.534;6.378;2023-04-03T01:16:23;41.50;40.03;42.71;;
56099;Laerm;44276;49.534;6.378;2023-04-03T01:18:52;41.49;39.81;42.71;;
56099;Laerm;44276;49.534;6.378;2023-04-03T01:22:06;41.47;39.70;42.65;;
56099;Laerm;44276;49.534;6.378;2023-04-03T01:24:41;41.50;40.03;42.82;;
56099;Laerm;44276;49.534;6.378;2023-04-03T01:27:10;41.48;40.03;42.76;;
56099;Laerm;44276;49.534;6.378;2023-04-03T01:29:41;41.48;40.13;42.93;;
56099;Laerm;44276;49.534;6.378;2023-04-03T01:32:11;41.48;39.81;42.76;;
56099;Laerm;44276;49.534;6.378;2023-04-03T01:34:40;41.48;39.81;42.71;;
56099;Laerm;44276;49.534;6.378;2023-04-03T01:37:08;41.48;39.81;42.76;;
56099;Laerm;44276;49.534;6.378;2023-04-03T01:39:36;41.49;39.92;42.93;;
56099;Laerm;44276;49.534;6.378;2023-04-03T01:42:04;41.47;39.70;42.82;;
56099;Laerm;44276;49.534;6.378;2023-04-03T01:44:33;41.47;39.92;43.04;;
56099;Laerm;44276;49.534;6.378;2023-04-03T01:47:02;41.47;40.03;42.76;;
56099;Laerm;44276;49.534;6.378;2023-04-03T01:49:34;41.45;39.92;42.71;;
56099;Laerm;44276;49.534;6.378;2023-04-03T01:52:02;41.47;39.81;42.90;;
56099;Laerm;44276;49.534;6.378;2023-04-03T01:54:30;41.47;39.46;42.76;;
56099;Laerm;44276;49.534;6.378;2023-04-03T01:56:59;41.47;39.92;42.71;;
56099;Laerm;44276;49.534;6.378;2023-04-03T01:59:27;41.45;39.58;42.88;;
56099;Laerm;44276;49.534;6.378;2023-04-03T02:01:55;41.42;39.92;42.71;;
56099;Laerm;44276;49.534;6.378;2023-04-03T02:04:23;41.38;39.92;42.65;;
56099;Laerm;44276;49.534;6.378;2023-04-03T02:06:53;41.32;39.92;42.53;;
56099;Laerm;44276;49.534;6.378;2023-04-03T02:09:21;41.33;39.58;42.71;;
56099;Laerm;44276;49.534;6.378;2023-04-03T02:11:49;41.32;39.70;42.65;;
56099;Laerm;44276;49.534;6.378;2023-04-03T02:14:17;41.30;39.70;42.71;;
56099;Laerm;44276;49.534;6.378;2023-04-03T02:16:46;41.29;39.81;42.53;;
56099;Laerm;44276;49.534;6.378;2023-04-03T02:19:14;41.34;39.58;42.64;;
56099;Laerm;44276;49.534;6.378;2023-04-03T02:21:42;41.32;39.92;42.47;;
56099;Laerm;44276;49.534;6.378;2023-04-03T02:24:12;41.27;39.70;42.53;;
56099;Laerm;44276;49.534;6.378;2023-04-03T02:26:40;41.26;39.81;42.65;;
56099;Laerm;44276;49.534;6.378;2023-04-03T02:29:08;41.25;39.70;42.47;;
56099;Laerm;44276;49.534;6.378;2023-04-03T02:31:36;41.24;39.58;42.71;;
56099;Laerm;44276;49.534;6.378;2023-04-03T02:34:04;41.24;39.70;42.71;;
56099;Laerm;44276;49.534;6.378;2023-04-03T02:36:33;41.23;39.58;42.71;;
56099;Laerm;44276;49.534;6.378;2023-04-03T02:39:02;41.22;39.70;42.53;;
56099;Laerm;44276;49.534;6.378;2023-04-03T02:41:31;41.22;39.46;42.65;;
56099;Laerm;44276;49.534;6.378;2023-04-03T02:44:03;41.20;39.70;42.47;;
56099;Laerm;44276;49.534;6.378;2023-04-03T02:46:31;41.23;39.68;42.47;;
56099;Laerm;44276;49.534;6.378;2023-04-03T02:49:00;41.20;39.46;42.47;;
56099;Laerm;44276;49.534;6.378;2023-04-03T02:51:28;41.18;39.46;42.35;;
56099;Laerm;44276;49.534;6.378;2023-04-03T02:53:56;41.18;39.70;42.59;;
56099;Laerm;44276;49.534;6.378;2023-04-03T02:56:25;41.19;38.81;42.41;;
56099;Laerm;44276;49.534;6.378;2023-04-03T02:58:55;41.20;39.81;42.47;;
56099;Laerm;44276;49.534;6.378;2023-04-03T03:01:23;41.22;39.21;42.47;;
56099;Laerm;44276;49.534;6.378;2023-04-03T03:03:51;41.22;39.58;42.41;;
56099;Laerm;44276;49.534;6.378;2023-04-03T03:06:19;41.20;39.57;42.47;;
56099;Laerm;44276;49.534;6.378;2023-04-03T03:08:47;41.19;39.70;42.41;;
56099;Laerm;44276;49.534;6.378;2023-04-03T03:11:16;41.19;39.70;42.41;;
56099;Laerm;44276;49.534;6.378;2023-04-03T03:13:44;41.17;39.70;42.53;;
56099;Laerm;44276;49.534;6.378;2023-04-03T03:16:13;41.18;39.58;42.41;;
56099;Laerm;44276;49.534;6.378;2023-04-03T03:18:41;41.18;39.70;42.29;;
56099;Laerm;44276;49.534;6.378;2023-04-03T03:21:10;41.19;39.34;42.59;;
56099;Laerm;44276;49.534;6.378;2023-04-03T03:23:38;41.19;39.70;42.88;;
56099;Laerm;44276;49.534;6.378;2023-04-03T03:26:09;41.20;39.46;42.76;;
56099;Laerm;44276;49.534;6.378;2023-04-03T03:28:39;41.18;39.58;42.59;;
56099;Laerm;44276;49.534;6.378;2023-04-03T03:31:09;41.16;39.46;42.47;;
56099;Laerm;44276;49.534;6.378;2023-04-03T03:33:38;41.14;39.46;42.35;;
56099;Laerm;44276;49.534;6.378;2023-04-03T03:36:07;41.17;39.34;42.47;;
56099;Laerm;44276;49.534;6.378;2023-04-03T03:38:35;41.17;39.34;42.58;;
56099;Laerm;44276;49.534;6.378;2023-04-03T03:41:03;41.14;39.46;42.47;;
56099;Laerm;44276;49.534;6.378;2023-04-03T03:43:31;41.13;39.58;42.47;;
56099;Laerm;44276;49.534;6.378;2023-04-03T03:45:59;41.14;39.08;42.47;;
56099;Laerm;44276;49.534;6.378;2023-04-03T03:48:28;41.16;39.21;42.47;;
56099;Laerm;44276;49.534;6.378;2023-04-03T03:50:57;41.18;39.34;42.53;;
56099;Laerm;44276;49.534;6.378;2023-04-03T03:53:25;41.11;39.46;42.35;;
56099;Laerm;44276;49.534;6.378;2023-04-03T03:55:53;41.09;39.34;42.29;;
56099;Laerm;44276;49.534;6.378;2023-04-03T03:58:21;41.15;39.58;42.59;;
56099;Laerm;44276;49.534;6.378;2023-04-03T04:00:49;41.16;39.46;42.47;;
56099;Laerm;44276;49.534;6.378;2023-04-03T04:03:17;41.15;38.95;42.53;;
56099;Laerm;44276;49.534;6.378;2023-04-03T04:05:46;41.13;39.46;42.41;;
56099;Laerm;44276;49.534;6.378;2023-04-03T04:08:15;41.15;39.70;42.47;;
56099;Laerm;44276;49.534;6.378;2023-04-03T04:10:44;41.14;39.46;42.41;;
56099;Laerm;44276;49.534;6.378;2023-04-03T04:13:12;41.12;39.46;42.47;;
56099;Laerm;44276;49.534;6.378;2023-04-03T04:15:40;41.12;39.46;42.41;;
56099;Laerm;44276;49.534;6.378;2023-04-03T04:18:08;41.14;39.58;42.69;;
56099;Laerm;44276;49.534;6.378;2023-04-03T04:20:36;41.13;39.58;42.53;;
56099;Laerm;44276;49.534;6.378;2023-04-03T04:23:04;41.15;39.46;42.35;;
56099;Laerm;44276;49.534;6.378;2023-04-03T04:25:34;41.15;39.34;42.71;;
56099;Laerm;44276;49.534;6.378;2023-04-03T04:28:02;41.12;39.34;42.53;;
56099;Laerm;44276;49.534;6.378;2023-04-03T04:30:30;41.14;39.21;42.47;;
56099;Laerm;44276;49.534;6.378;2023-04-03T04:32:58;41.13;39.46;42.41;;
56099;Laerm;44276;49.534;6.378;2023-04-03T04:35:26;41.13;39.21;42.53;;
56099;Laerm;44276;49.534;6.378;2023-04-03T04:37:55;41.13;39.21;42.65;;
56099;Laerm;44276;49.534;6.378;2023-04-03T04:40:23;41.12;39.58;42.53;;
56099;Laerm;44276;49.534;6.378;2023-04-03T04:42:52;41.11;39.58;42.41;;
56099;Laerm;44276;49.534;6.378;2023-04-03T04:45:21;41.11;39.46;42.41;;
56099;Laerm;44276;49.534;6.378;2023-04-03T04:47:49;41.13;39.46;42.53;;
56099;Laerm;44276;49.534;6.378;2023-04-03T04:50:19;41.13;39.70;42.41;;
56099;Laerm;44276;49.534;6.378;2023-04-03T04:52:47;41.15;39.34;42.47;;
56099;Laerm;44276;49.534;6.378;2023-04-03T04:55:16;41.15;39.46;42.53;;
56099;Laerm;44276;49.534;6.378;2023-04-03T04:57:44;41.16;39.58;42.53;;
56099;Laerm;44276;49.534;6.378;2023-04-03T05:00:15;41.17;39.58;42.59;;
56099;Laerm;44276;49.534;6.378;2023-04-03T05:02:43;41.18;39.58;42.53;;
56099;Laerm;44276;49.534;6.378;2023-04-03T05:05:11;41.16;39.58;42.47;;
56099;Laerm;44276;49.534;6.378;2023-04-03T05:07:40;41.17;39.46;42.47;;
56099;Laerm;44276;49.534;6.378;2023-04-03T05:10:09;41.16;39.46;42.47;;
56099;Laerm;44276;49.534;6.378;2023-04-03T05:12:38;41.18;39.58;42.59;;
56099;Laerm;44276;49.534;6.378;2023-04-03T05:15:08;41.21;39.70;42.59;;
56099;Laerm;44276;49.534;6.378;2023-04-03T05:17:38;41.22;39.70;43.90;;
56099;Laerm;44276;49.534;6.378;2023-04-03T05:20:07;41.21;39.58;45.23;;
56099;Laerm;44276;49.534;6.378;2023-04-03T05:22:35;41.19;39.34;42.53;;
56099;Laerm;44276;49.534;6.378;2023-04-03T05:25:05;41.16;39.58;42.47;;
56099;Laerm;44276;49.534;6.378;2023-04-03T05:27:33;41.17;39.58;42.41;;
56099;Laerm;44276;49.534;6.378;2023-04-03T05:30:02;41.18;39.34;42.41;;
56099;Laerm;44276;49.534;6.378;2023-04-03T05:32:31;41.20;39.46;42.41;;
56099;Laerm;44276;49.534;6.378;2023-04-03T05:35:00;41.19;39.21;42.42;;
56099;Laerm;44276;49.534;6.378;2023-04-03T05:37:28;41.19;39.34;42.41;;
56099;Laerm;44276;49.534;6.378;2023-04-03T05:39:57;41.20;39.46;42.36;;
56099;Laerm;44276;49.534;6.378;2023-04-03T05:42:25;41.18;39.34;42.41;;
56099;Laerm;44276;49.534;6.378;2023-04-03T05:44:53;41.18;39.08;42.41;;
56099;Laerm;44276;49.534;6.378;2023-04-03T05:47:22;41.19;39.70;42.53;;
56099;Laerm;44276;49.534;6.378;2023-04-03T05:49:50;41.22;39.70;42.47;;
56099;Laerm;44276;49.534;6.378;2023-04-03T05:52:25;41.25;39.81;42.59;;
56099;Laerm;44276;49.534;6.378;2023-04-03T05:54:54;41.23;39.46;42.82;;
56099;Laerm;44276;49.534;6.378;2023-04-03T05:57:23;41.23;39.57;42.59;;
56099;Laerm;44276;49.534;6.378;2023-04-03T05:59:51;41.25;39.70;42.47;;
56099;Laerm;44276;49.534;6.378;2023-04-03T06:02:22;41.23;39.81;42.59;;
56099;Laerm;44276;49.534;6.378;2023-04-03T06:04:51;41.26;39.58;42.53;;
56099;Laerm;44276;49.534;6.378;2023-04-03T06:07:23;41.31;39.58;42.53;;
56099;Laerm;44276;49.534;6.378;2023-04-03T06:09:56;41.28;39.70;42.65;;
56099;Laerm;44276;49.534;6.378;2023-04-03T06:12:24;41.29;39.70;42.53;;
56099;Laerm;44276;49.534;6.378;2023-04-03T06:14:52;41.38;39.92;42.71;;
56099;Laerm;44276;49.534;6.378;2023-04-03T06:17:21;41.40;39.70;42.76;;
56099;Laerm;44276;49.534;6.378;2023-04-03T06:19:49;41.40;39.81;42.71;;
56099;Laerm;44276;49.534;6.378;2023-04-03T06:22:17;41.40;39.70;42.82;;
56099;Laerm;44276;49.534;6.378;2023-04-03T06:24:46;41.44;39.92;42.65;;
56099;Laerm;44276;49.534;6.378;2023-04-03T06:27:14;41.43;39.81;42.76;;
56099;Laerm;44276;49.534;6.378;2023-04-03T06:29:43;41.44;39.81;42.58;;
56099;Laerm;44276;49.534;6.378;2023-04-03T06:32:12;41.44;39.92;42.82;;
56099;Laerm;44276;49.534;6.378;2023-04-03T06:34:40;41.45;39.92;42.71;;
56099;Laerm;44276;49.534;6.378;2023-04-03T06:37:14;41.59;40.13;42.98;;
56099;Laerm;44276;49.534;6.378;2023-04-03T06:39:43;41.61;40.03;42.93;;
56099;Laerm;44276;49.534;6.378;2023-04-03T06:42:13;41.56;39.81;42.82;;
56099;Laerm;44276;49.534;6.378;2023-04-03T06:44:41;41.58;39.58;42.82;;
56099;Laerm;44276;49.534;6.378;2023-04-03T06:47:11;41.56;40.03;42.65;;
56099;Laerm;44276;49.534;6.378;2023-04-03T06:49:39;41.59;40.33;42.93;;
56099;Laerm;44276;49.534;6.378;2023-04-03T06:52:08;41.58;40.23;42.93;;
56099;Laerm;44276;49.534;6.378;2023-04-03T06:54:39;41.62;40.03;42.82;;
56099;Laerm;44276;49.534;6.378;2023-04-03T06:57:08;41.64;40.03;42.88;;
56099;Laerm;44276;49.534;6.378;2023-04-03T06:59:37;41.50;39.81;42.71;;
56099;Laerm;44276;49.534;6.378;2023-04-03T07:02:09;41.53;40.13;42.71;;
56099;Laerm;44276;49.534;6.378;2023-04-03T07:04:37;41.58;39.78;42.76;;
56099;Laerm;44276;49.534;6.378;2023-04-03T07:07:06;41.59;39.92;42.79;;
56099;Laerm;44276;49.534;6.378;2023-04-03T07:09:34;41.65;40.33;42.88;;
56099;Laerm;44276;49.534;6.378;2023-04-03T07:12:03;41.69;40.33;43.04;;
56099;Laerm;44276;49.534;6.378;2023-04-03T07:14:31;41.72;40.23;42.88;;
56099;Laerm;44276;49.534;6.378;2023-04-03T07:17:00;41.71;40.13;42.88;;
56099;Laerm;44276;49.534;6.378;2023-04-03T07:19:28;41.73;40.23;43.24;;
56099;Laerm;44276;49.534;6.378;2023-04-03T07:21:58;41.75;40.43;42.93;;
56099;Laerm;44276;49.534;6.378;2023-04-03T07:24:26;41.79;40.23;43.04;;
56099;Laerm;44276;49.534;6.378;2023-04-03T07:26:54;41.80;40.03;43.19;;
56099;Laerm;44276;49.534;6.378;2023-04-03T07:29:22;41.79;40.33;42.98;;
56099;Laerm;44276;49.534;6.378;2023-04-03T07:31:50;41.80;40.23;43.09;;
56099;Laerm;44276;49.534;6.378;2023-04-03T07:34:21;41.89;40.53;43.44;;
56099;Laerm;44276;49.534;6.378;2023-04-03T07:36:49;41.92;40.43;43.14;;
56099;Laerm;44276;49.534;6.378;2023-04-03T07:39:17;41.88;40.33;43.29;;
56099;Laerm;44276;49.534;6.378;2023-04-03T07:41:46;41.89;40.33;43.04;;
56099;Laerm;44276;49.534;6.378;2023-04-03T07:44:14;41.91;40.13;44.19;;
56099;Laerm;44276;49.534;6.378;2023-04-03T07:46:42;41.87;40.43;43.14;;
56099;Laerm;44276;49.534;6.378;2023-04-03T07:49:10;41.89;40.23;44.47;;
56099;Laerm;44276;49.534;6.378;2023-04-03T07:51:40;41.79;40.03;42.98;;
56099;Laerm;44276;49.534;6.378;2023-04-03T07:54:08;41.84;40.33;43.09;;
56099;Laerm;44276;49.534;6.378;2023-04-03T07:56:37;41.81;40.43;43.04;;
56099;Laerm;44276;49.534;6.378;2023-04-03T07:59:06;41.86;40.36;42.98;;
56099;Laerm;44276;49.534;6.378;2023-04-03T08:01:34;41.88;40.53;43.14;;
56099;Laerm;44276;49.534;6.378;2023-04-03T08:04:03;41.85;40.23;43.04;;
56099;Laerm;44276;49.534;6.378;2023-04-03T08:06:31;41.84;40.23;43.14;;
56099;Laerm;44276;49.534;6.378;2023-04-03T08:09:14;41.86;40.53;43.24;;
56099;Laerm;44276;49.534;6.378;2023-04-03T08:11:43;41.94;40.53;43.29;;
56099;Laerm;44276;49.534;6.378;2023-04-03T08:14:13;41.89;40.33;43.19;;
56099;Laerm;44276;49.534;6.378;2023-04-03T08:16:46;41.95;40.71;43.94;;
56099;Laerm;44276;49.534;6.378;2023-04-03T08:19:16;41.84;40.43;43.14;;
56099;Laerm;44276;49.534;6.378;2023-04-03T08:21:53;41.86;40.33;43.14;;
56099;Laerm;44276;49.534;6.378;2023-04-03T08:24:23;41.90;40.23;43.14;;
56099;Laerm;44276;49.534;6.378;2023-04-03T08:26:51;41.91;40.53;43.19;;
56099;Laerm;44276;49.534;6.378;2023-04-03T08:29:19;41.87;40.33;43.04;;
56099;Laerm;44276;49.534;6.378;2023-04-03T08:31:48;41.93;40.23;43.28;;
56099;Laerm;44276;49.534;6.378;2023-04-03T08:34:17;41.94;40.43;43.19;;
56099;Laerm;44276;49.534;6.378;2023-04-03T08:36:46;41.92;40.62;43.04;;
56099;Laerm;44276;49.534;6.378;2023-04-03T08:39:14;41.96;40.33;43.24;;
56099;Laerm;44276;49.534;6.378;2023-04-03T08:41:46;41.98;40.53;43.29;;
56099;Laerm;44276;49.534;6.378;2023-04-03T08:44:24;41.96;40.62;43.63;;
56099;Laerm;44276;49.534;6.378;2023-04-03T08:47:08;41.98;40.33;43.24;;
56099;Laerm;44276;49.534;6.378;2023-04-03T08:49:42;42.00;40.62;43.19;;
56099;Laerm;44276;49.534;6.378;2023-04-03T08:52:18;42.03;40.71;43.34;;
56099;Laerm;44276;49.534;6.378;2023-04-03T08:54:52;42.15;40.23;43.39;;
56099;Laerm;44276;49.534;6.378;2023-04-03T08:57:29;42.16;40.53;43.58;;
56099;Laerm;44276;49.534;6.378;2023-04-03T09:00:04;42.03;40.62;43.24;;
56099;Laerm;44276;49.534;6.378;2023-04-03T09:02:42;42.24;40.80;43.58;;
56099;Laerm;44276;49.534;6.378;2023-04-03T09:05:17;42.24;40.89;43.44;;
56099;Laerm;44276;49.534;6.378;2023-04-03T09:07:51;42.13;40.80;43.68;;
56099;Laerm;44276;49.534;6.378;2023-04-03T09:10:28;42.27;40.89;43.34;;
56099;Laerm;44276;49.534;6.378;2023-04-03T09:13:05;42.32;40.43;44.15;;
56099;Laerm;44276;49.534;6.378;2023-04-03T09:15:35;42.28;40.88;43.49;;
56099;Laerm;44276;49.534;6.378;2023-04-03T09:18:13;42.28;40.80;43.49;;
56099;Laerm;44276;49.534;6.378;2023-04-03T09:20:52;42.23;40.80;43.58;;
56099;Laerm;44276;49.534;6.378;2023-04-03T09:23:31;42.29;40.80;43.49;;
56099;Laerm;44276;49.534;6.378;2023-04-03T09:26:05;42.32;40.71;44.11;;
56099;Laerm;44276;49.534;6.378;2023-04-03T09:28:40;42.30;41.06;44.69;;
56099;Laerm;44276;49.534;6.378;2023-04-03T09:31:21;42.30;40.98;46.73;;
56099;Laerm;44276;49.534;6.378;2023-04-03T09:33:55;42.37;40.98;44.11;;
56099;Laerm;44276;49.534;6.378;2023-04-03T09:36:43;42.29;40.71;43.77;;
56099;Laerm;44276;49.534;6.378;2023-04-03T09:39:15;42.30;40.89;44.03;;
56099;Laerm;44276;49.534;6.378;2023-04-03T09:41:59;42.38;40.80;43.68;;
56099;Laerm;44276;49.534;6.378;2023-04-03T09:44:32;42.36;40.80;47.46;;
56099;Laerm;44276;49.534;6.378;2023-04-03T09:47:21;42.11;40.80;43.28;;
56099;Laerm;44276;49.534;6.378;2023-04-03T09:50:10;42.13;40.71;43.24;;
56099;Laerm;44276;49.534;6.378;2023-04-03T09:52:47;42.26;40.89;43.39;;
56099;Laerm;44276;49.534;6.378;2023-04-03T09:55:17;42.37;40.89;43.68;;
56099;Laerm;44276;49.534;6.378;2023-04-03T09:57:48;42.48;41.06;44.31;;
56099;Laerm;44276;49.534;6.378;2023-04-03T10:00:28;42.51;41.30;43.81;;
56099;Laerm;44276;49.534;6.378;2023-04-03T10:02:59;42.76;41.06;55.84;;
56099;Laerm;44276;49.534;6.378;2023-04-03T10:05:33;42.68;40.98;46.82;;
56099;Laerm;44276;49.534;6.378;2023-04-03T10:08:20;42.63;40.98;46.50;;
56099;Laerm;44276;49.534;6.378;2023-04-03T10:11:13;42.35;40.43;47.10;;
56099;Laerm;44276;49.534;6.378;2023-04-03T10:13:55;42.19;40.71;44.07;;
56099;Laerm;44276;49.534;6.378;2023-04-03T10:16:35;42.18;40.71;43.77;;
56099;Laerm;44276;49.534;6.378;2023-04-03T10:19:30;42.13;40.53;47.28;;
56099;Laerm;44276;49.534;6.378;2023-04-03T10:22:06;42.15;40.43;48.00;;
56099;Laerm;44276;49.534;6.378;2023-04-03T10:24:49;42.17;40.13;54.84;;
56099;Laerm;44276;49.534;6.378;2023-04-03T10:27:34;41.96;39.70;47.44;;
56099;Laerm;44276;49.534;6.378;2023-04-03T10:30:19;42.04;39.89;49.74;;
56099;Laerm;44276;49.534;6.378;2023-04-03T10:33:07;41.92;39.81;46.95;;
56099;Laerm;44276;49.534;6.378;2023-04-03T10:35:48;41.80;39.46;50.77;;
56099;Laerm;44276;49.534;6.378;2023-04-03T10:38:30;41.77;39.58;48.48;;
56099;Laerm;44276;49.534;6.378;2023-04-03T10:41:07;41.77;39.34;51.70;;
56099;Laerm;44276;49.534;6.378;2023-04-03T10:43:52;41.80;38.81;45.57;;
56099;Laerm;44276;49.534;6.378;2023-04-03T10:46:33;42.33;38.81;52.43;;
56099;Laerm;44276;49.534;6.378;2023-04-03T10:49:20;41.40;39.46;47.79;;
56099;Laerm;44276;49.534;6.378;2023-04-03T10:52:02;41.68;39.21;51.15;;
56099;Laerm;44276;49.534;6.378;2023-04-03T10:54:39;41.57;39.70;43.77;;
56099;Laerm;44276;49.534;6.378;2023-04-03T10:57:10;41.54;39.21;43.94;;
56099;Laerm;44276;49.534;6.378;2023-04-03T10:59:44;41.61;39.34;54.19;;
56099;Laerm;44276;49.534;6.378;2023-04-03T11:02:23;41.72;38.81;49.56;;
56099;Laerm;44276;49.534;6.378;2023-04-03T11:05:04;41.19;36.91;47.84;;
56099;Laerm;44276;49.534;6.378;2023-04-03T11:07:39;41.16;38.05;45.72;;
56099;Laerm;44276;49.534;6.378;2023-04-03T11:10:14;41.22;38.05;45.51;;
56099;Laerm;44276;49.534;6.378;2023-04-03T11:12:52;41.48;38.21;48.88;;
56099;Laerm;44276;49.534;6.378;2023-04-03T11:15:23;42.35;38.37;47.86;;
56099;Laerm;44276;49.534;6.378;2023-04-03T11:18:00;41.56;38.21;52.35;;
56099;Laerm;44276;49.534;6.378;2023-04-03T11:20:33;41.31;38.21;46.89;;
56099;Laerm;44276;49.534;6.378;2023-04-03T11:23:04;41.00;37.32;50.07;;
56099;Laerm;44276;49.534;6.378;2023-04-03T11:25:36;41.30;36.45;51.08;;
56099;Laerm;44276;49.534;6.378;2023-04-03T11:28:13;41.45;35.94;58.11;;
56099;Laerm;44276;49.534;6.378;2023-04-03T11:30:49;40.95;35.36;45.60;;
56099;Laerm;44276;49.534;6.378;2023-04-03T11:33:32;41.36;35.66;51.32;;
56099;Laerm;44276;49.534;6.378;2023-04-03T11:36:12;40.85;37.52;44.34;;
56099;Laerm;44276;49.534;6.378;2023-04-03T11:38:55;41.46;35.59;53.78;;
56099;Laerm;44276;49.534;6.378;2023-04-03T11:41:28;41.21;35.36;48.84;;
56099;Laerm;44276;49.534;6.378;2023-04-03T11:44:00;41.72;36.45;61.20;;
56099;Laerm;44276;49.534;6.378;2023-04-03T11:46:51;41.82;37.70;55.13;;
56099;Laerm;44276;49.534;6.378;2023-04-03T11:49:56;43.06;37.52;56.51;;
56099;Laerm;44276;49.534;6.378;2023-04-03T11:52:58;41.64;37.12;54.34;;
56099;Laerm;44276;49.534;6.378;2023-04-03T11:55:54;42.00;37.12;52.29;;
56099;Laerm;44276;49.534;6.378;2023-04-03T11:58:25;41.35;34.31;51.33;;
56099;Laerm;44276;49.534;6.378;2023-04-03T12:00:58;41.15;33.90;46.66;;
56099;Laerm;44276;49.534;6.378;2023-04-03T12:04:07;41.83;38.37;53.11;;
56099;Laerm;44276;49.534;6.378;2023-04-03T12:07:12;41.92;37.52;54.80;;
56099;Laerm;44276;49.534;6.378;2023-04-03T12:10:17;41.27;38.05;51.73;;
56099;Laerm;44276;49.534;6.378;2023-04-03T12:13:00;41.46;34.69;51.50;;
56099;Laerm;44276;49.534;6.378;2023-04-03T12:15:55;41.96;37.52;50.36;;
56099;Laerm;44276;49.534;6.378;2023-04-03T12:18:56;41.70;37.32;51.32;;
56099;Laerm;44276;49.534;6.378;2023-04-03T12:22:09;42.02;36.91;54.59;;
56099;Laerm;44276;49.534;6.378;2023-04-03T12:24:40;41.85;35.94;47.77;;
56099;Laerm;44276;49.534;6.378;2023-04-03T12:27:32;41.84;35.04;52.03;;
56099;Laerm;44276;49.534;6.378;2023-04-03T12:30:13;41.63;36.69;46.71;;
56099;Laerm;44276;49.534;6.378;2023-04-03T12:33:04;41.84;36.91;48.25;;
56099;Laerm;44276;49.534;6.378;2023-04-03T12:35:55;42.08;38.05;51.54;;
56099;Laerm;44276;49.534;6.378;2023-04-03T12:38:54;41.77;37.52;54.21;;
56099;Laerm;44276;49.534;6.378;2023-04-03T12:41:37;42.05;35.94;52.88;;
56099;Laerm;44276;49.534;6.378;2023-04-03T12:44:31;42.69;37.88;55.17;;
56099;Laerm;44276;49.534;6.378;2023-04-03T12:47:27;41.53;34.69;47.84;;
56099;Laerm;44276;49.534;6.378;2023-04-03T12:49:57;41.10;37.32;47.91;;
56099;Laerm;44276;49.534;6.378;2023-04-03T12:52:37;41.43;37.32;46.89;;
56099;Laerm;44276;49.534;6.378;2023-04-03T12:55:15;41.41;37.88;47.83;;
56099;Laerm;44276;49.534;6.378;2023-04-03T12:57:44;41.88;37.52;47.26;;
56099;Laerm;44276;49.534;6.378;2023-04-03T13:00:29;42.13;35.94;51.98;;
56099;Laerm;44276;49.534;6.378;2023-04-03T13:03:01;42.83;36.45;50.49;;
56099;Laerm;44276;49.534;6.378;2023-04-03T13:05:32;42.23;38.37;53.28;;
56099;Laerm;44276;49.534;6.378;2023-04-03T13:08:08;42.05;38.21;52.23;;
56099;Laerm;44276;49.534;6.378;2023-04-03T13:10:55;43.21;34.69;58.56;;
56099;Laerm;44276;49.534;6.378;2023-04-03T13:13:26;43.48;33.97;60.45;;
56099;Laerm;44276;49.534;6.378;2023-04-03T13:15:57;41.77;30.89;53.01;;
56099;Laerm;44276;49.534;6.378;2023-04-03T13:18:29;44.33;26.91;56.18;;
56099;Laerm;44276;49.534;6.378;2023-04-03T13:21:03;43.72;30.89;53.84;;
56099;Laerm;44276;49.534;6.378;2023-04-03T13:23:38;42.94;26.91;57.66;;
56099;Laerm;44276;49.534;6.378;2023-04-03T13:26:08;43.39;32.93;56.84;;
56099;Laerm;44276;49.534;6.378;2023-04-03T13:28:38;42.97;29.92;51.49;;
56099;Laerm;44276;49.534;6.378;2023-04-03T13:31:31;42.44;26.91;50.23;;
56099;Laerm;44276;49.534;6.378;2023-04-03T13:34:07;43.58;30.89;56.18;;
56099;Laerm;44276;49.534;6.378;2023-04-03T13:36:43;43.11;28.67;52.34;;
56099;Laerm;44276;49.534;6.378;2023-04-03T13:39:24;42.81;23.90;51.72;;
56099;Laerm;44276;49.534;6.378;2023-04-03T13:41:55;42.46;23.90;52.30;;
56099;Laerm;44276;49.534;6.378;2023-04-03T13:44:33;44.26;31.68;53.52;;
56099;Laerm;44276;49.534;6.378;2023-04-03T13:47:19;44.12;30.89;59.00;;
56099;Laerm;44276;49.534;6.378;2023-04-03T13:50:01;42.96;30.89;55.03;;
56099;Laerm;44276;49.534;6.378;2023-04-03T13:52:34;43.52;23.90;52.64;;
56099;Laerm;44276;49.534;6.378;2023-04-03T13:55:20;43.65;30.89;53.00;;
56099;Laerm;44276;49.534;6.378;2023-04-03T13:57:56;43.33;23.90;53.32;;
56099;Laerm;44276;49.534;6.378;2023-04-03T14:00:37;42.87;29.92;53.56;;
56099;Laerm;44276;49.534;6.378;2023-04-03T14:03:22;43.92;29.92;53.89;;
56099;Laerm;44276;49.534;6.378;2023-04-03T14:05:51;42.84;31.33;58.97;;
56099;Laerm;44276;49.534;6.378;2023-04-03T14:08:20;42.20;33.90;48.23;;
56099;Laerm;44276;49.534;6.378;2023-04-03T14:11:05;41.64;31.68;51.52;;
56099;Laerm;44276;49.534;6.378;2023-04-03T14:13:34;43.70;29.92;53.27;;
56099;Laerm;44276;49.534;6.378;2023-04-03T14:16:03;43.84;29.92;56.81;;
56099;Laerm;44276;49.534;6.378;2023-04-03T14:18:44;43.65;30.89;64.09;;